sensor_id;sensor_type;location;lat;lon;timestamp;pressure;altitude;pressure_sealevel;temperature;humidity
66547;BME280;53400;50.364;14.874;2023-03-04T00:01:53;98983.09;;;-0.77;100.00
66547;BME280;53400;50.364;14.874;2023-03-04T00:04:20;98972.72;;;-0.87;100.00
66547;BME280;53400;50.364;14.874;2023-03-04T00:06:47;98982.06;;;-1.01;100.00
66547;BME280;53400;50.364;14.874;2023-03-04T00:09:16;98982.91;;;-1.00;100.00
66547;BME280;53400;50.364;14.874;2023-03-04T00:11:43;98981.28;;;-0.93;100.00
66547;BME280;53400;50.364;14.874;2023-03-04T00:14:11;98973.72;;;-0.80;100.00
66547;BME280;53400;50.364;14.874;2023-03-04T00:16:38;98973.88;;;-0.89;100.00
66547;BME280;53400;50.364;14.874;2023-03-04T00:19:05;98969.75;;;-1.08;100.00
66547;BME280;53400;50.364;14.874;2023-03-04T00:21:32;98976.47;;;-0.98;100.00
66547;BME280;53400;50.364;14.874;2023-03-04T00:24:00;98975.66;;;-0.98;100.00
66547;BME280;53400;50.364;14.874;2023-03-04T00:26:29;98971.91;;;-0.79;100.00
66547;BME280;53400;50.364;14.874;2023-03-04T00:28:57;98977.19;;;-0.87;100.00
66547;BME280;53400;50.364;14.874;2023-03-04T00:31:25;98967.63;;;-0.88;100.00
66547;BME280;53400;50.364;14.874;2023-03-04T00:33:52;98968.44;;;-0.96;100.00
66547;BME280;53400;50.364;14.874;2023-03-04T00:36:18;98969.78;;;-0.84;100.00
66547;BME280;53400;50.364;14.874;2023-03-04T00:38:46;98966.97;;;-0.74;100.00
66547;BME280;53400;50.364;14.874;2023-03-04T00:41:13;98966.34;;;-0.60;99.34
66547;BME280;53400;50.364;14.874;2023-03-04T00:43:40;98959.75;;;-0.80;99.90
66547;BME280;53400;50.364;14.874;2023-03-04T00:46:06;98966.16;;;-0.91;100.00
66547;BME280;53400;50.364;14.874;2023-03-04T00:48:32;98967.44;;;-0.95;100.00
66547;BME280;53400;50.364;14.874;2023-03-04T00:50:58;98967.78;;;-0.74;100.00
66547;BME280;53400;50.364;14.874;2023-03-04T00:53:24;98962.03;;;-1.02;100.00
66547;BME280;53400;50.364;14.874;2023-03-04T00:55:49;98962.22;;;-1.03;100.00
66547;BME280;53400;50.364;14.874;2023-03-04T00:58:15;98955.66;;;-0.91;100.00
66547;BME280;53400;50.364;14.874;2023-03-04T01:00:43;98951.19;;;-0.99;100.00
66547;BME280;53400;50.364;14.874;2023-03-04T01:03:09;98957.47;;;-0.75;99.38
66547;BME280;53400;50.364;14.874;2023-03-04T01:05:34;98954.81;;;-0.75;99.32
66547;BME280;53400;50.364;14.874;2023-03-04T01:08:01;98959.09;;;-0.74;99.76
66547;BME280;53400;50.364;14.874;2023-03-04T01:10:27;98959.41;;;-0.85;99.97
66547;BME280;53400;50.364;14.874;2023-03-04T01:12:53;98960.41;;;-0.62;98.46
66547;BME280;53400;50.364;14.874;2023-03-04T01:15:18;98953.00;;;-0.75;98.42
66547;BME280;53400;50.364;14.874;2023-03-04T01:17:46;98956.31;;;-0.81;99.12
66547;BME280;53400;50.364;14.874;2023-03-04T01:20:12;98948.91;;;-0.61;97.51
66547;BME280;53400;50.364;14.874;2023-03-04T01:22:38;98953.50;;;-0.63;96.97
66547;BME280;53400;50.364;14.874;2023-03-04T01:25:05;98948.06;;;-0.61;96.08
66547;BME280;53400;50.364;14.874;2023-03-04T01:27:32;98946.59;;;-0.80;97.64
66547;BME280;53400;50.364;14.874;2023-03-04T01:29:57;98938.06;;;-0.90;98.30
66547;BME280;53400;50.364;14.874;2023-03-04T01:32:23;98931.31;;;-0.77;98.03
66547;BME280;53400;50.364;14.874;2023-03-04T01:34:50;98933.97;;;-0.85;97.64
66547;BME280;53400;50.364;14.874;2023-03-04T01:37:16;98929.31;;;-0.58;96.95
66547;BME280;53400;50.364;14.874;2023-03-04T01:39:42;98921.78;;;-0.70;96.48
66547;BME280;53400;50.364;14.874;2023-03-04T01:42:13;98923.91;;;-0.89;97.46
66547;BME280;53400;50.364;14.874;2023-03-04T01:44:42;98915.34;;;-0.67;97.27
66547;BME280;53400;50.364;14.874;2023-03-04T01:47:09;98912.06;;;-0.44;95.80
66547;BME280;53400;50.364;14.874;2023-03-04T01:49:35;98901.53;;;-0.53;94.75
66547;BME280;53400;50.364;14.874;2023-03-04T01:52:02;98899.41;;;-0.74;95.61
66547;BME280;53400;50.364;14.874;2023-03-04T01:54:28;98899.22;;;-0.56;94.81
66547;BME280;53400;50.364;14.874;2023-03-04T01:56:55;98897.94;;;-0.68;95.34
66547;BME280;53400;50.364;14.874;2023-03-04T01:59:25;98894.66;;;-0.86;96.59
66547;BME280;53400;50.364;14.874;2023-03-04T02:01:53;98895.97;;;-0.66;96.82
66547;BME280;53400;50.364;14.874;2023-03-04T02:04:21;98896.31;;;-0.61;95.44
66547;BME280;53400;50.364;14.874;2023-03-04T02:06:49;98882.94;;;-0.43;93.68
66547;BME280;53400;50.364;14.874;2023-03-04T02:09:17;98872.25;;;-0.41;93.60
66547;BME280;53400;50.364;14.874;2023-03-04T02:11:44;98875.44;;;-0.79;94.83
66547;BME280;53400;50.364;14.874;2023-03-04T02:14:11;98868.06;;;-1.00;96.57
66547;BME280;53400;50.364;14.874;2023-03-04T02:16:38;98863.13;;;-1.03;96.97
66547;BME280;53400;50.364;14.874;2023-03-04T02:19:06;98864.22;;;-0.64;94.56
66547;BME280;53400;50.364;14.874;2023-03-04T02:21:35;98867.91;;;-1.06;95.58
66547;BME280;53400;50.364;14.874;2023-03-04T02:24:08;98865.25;;;-0.82;95.25
66547;BME280;53400;50.364;14.874;2023-03-04T02:26:37;98861.00;;;-0.99;95.28
66547;BME280;53400;50.364;14.874;2023-03-04T02:29:06;98848.50;;;-1.05;95.25
66547;BME280;53400;50.364;14.874;2023-03-04T02:31:35;98854.41;;;-0.79;93.73
66547;BME280;53400;50.364;14.874;2023-03-04T02:34:04;98853.09;;;-0.91;94.40
66547;BME280;53400;50.364;14.874;2023-03-04T02:36:32;98845.88;;;-0.97;94.06
66547;BME280;53400;50.364;14.874;2023-03-04T02:39:04;98842.88;;;-0.86;93.85
66547;BME280;53400;50.364;14.874;2023-03-04T02:41:32;98835.34;;;-0.89;94.11
66547;BME280;53400;50.364;14.874;2023-03-04T02:43:59;98840.44;;;-0.96;95.10
66547;BME280;53400;50.364;14.874;2023-03-04T02:46:25;98833.94;;;-0.52;93.06
66547;BME280;53400;50.364;14.874;2023-03-04T02:48:51;98831.31;;;-0.52;91.81
66547;BME280;53400;50.364;14.874;2023-03-04T02:51:17;98820.16;;;-0.54;91.79
66547;BME280;53400;50.364;14.874;2023-03-04T02:53:43;98824.81;;;-0.73;92.56
66547;BME280;53400;50.364;14.874;2023-03-04T02:56:09;98827.66;;;-0.43;91.79
66547;BME280;53400;50.364;14.874;2023-03-04T02:58:35;98830.69;;;-0.62;91.46
66547;BME280;53400;50.364;14.874;2023-03-04T03:01:05;98830.22;;;-0.58;91.96
66547;BME280;53400;50.364;14.874;2023-03-04T03:03:30;98828.06;;;-0.62;91.94
66547;BME280;53400;50.364;14.874;2023-03-04T03:05:57;98827.72;;;-0.67;92.38
66547;BME280;53400;50.364;14.874;2023-03-04T03:08:22;98836.66;;;-0.85;93.52
66547;BME280;53400;50.364;14.874;2023-03-04T03:10:49;98838.47;;;-1.02;93.14
66547;BME280;53400;50.364;14.874;2023-03-04T03:13:14;98835.00;;;-0.78;92.42
66547;BME280;53400;50.364;14.874;2023-03-04T03:15:40;98829.25;;;-0.98;93.48
66547;BME280;53400;50.364;14.874;2023-03-04T03:18:08;98835.34;;;-1.05;93.73
66547;BME280;53400;50.364;14.874;2023-03-04T03:20:35;98834.00;;;-0.68;91.67
66547;BME280;53400;50.364;14.874;2023-03-04T03:23:02;98836.28;;;-0.74;90.96
66547;BME280;53400;50.364;14.874;2023-03-04T03:25:28;98827.44;;;-0.89;91.39
66547;BME280;53400;50.364;14.874;2023-03-04T03:27:54;98827.94;;;-1.10;91.90
66547;BME280;53400;50.364;14.874;2023-03-04T03:30:20;98832.09;;;-1.24;93.34
66547;BME280;53400;50.364;14.874;2023-03-04T03:32:46;98833.38;;;-1.11;93.15
66547;BME280;53400;50.364;14.874;2023-03-04T03:35:13;98824.19;;;-0.99;92.90
66547;BME280;53400;50.364;14.874;2023-03-04T03:37:39;98831.59;;;-1.03;93.13
66547;BME280;53400;50.364;14.874;2023-03-04T03:40:06;98829.41;;;-0.83;92.70
66547;BME280;53400;50.364;14.874;2023-03-04T03:42:32;98822.38;;;-0.90;92.91
66547;BME280;53400;50.364;14.874;2023-03-04T03:44:58;98823.19;;;-0.90;92.41
66547;BME280;53400;50.364;14.874;2023-03-04T03:47:24;98815.78;;;-0.95;93.24
66547;BME280;53400;50.364;14.874;2023-03-04T03:49:50;98818.56;;;-0.72;92.12
66547;BME280;53400;50.364;14.874;2023-03-04T03:52:17;98817.75;;;-0.72;91.95
66547;BME280;53400;50.364;14.874;2023-03-04T03:54:43;98808.56;;;-0.93;92.11
66547;BME280;53400;50.364;14.874;2023-03-04T03:57:09;98816.09;;;-0.81;92.16
66547;BME280;53400;50.364;14.874;2023-03-04T03:59:35;98807.81;;;-0.54;90.41
66547;BME280;53400;50.364;14.874;2023-03-04T04:02:01;98810.47;;;-0.62;90.90
66547;BME280;53400;50.364;14.874;2023-03-04T04:04:27;98802.81;;;-1.04;95.21
66547;BME280;53400;50.364;14.874;2023-03-04T04:06:52;98808.91;;;-1.20;97.29
66547;BME280;53400;50.364;14.874;2023-03-04T04:09:20;98809.59;;;-1.43;99.53
66547;BME280;53400;50.364;14.874;2023-03-04T04:11:46;98805.97;;;-1.42;99.72
66547;BME280;53400;50.364;14.874;2023-03-04T04:14:12;98804.97;;;-1.24;99.07
66547;BME280;53400;50.364;14.874;2023-03-04T04:16:38;98807.59;;;-1.41;100.00
66547;BME280;53400;50.364;14.874;2023-03-04T04:19:04;98801.03;;;-1.45;100.00
66547;BME280;53400;50.364;14.874;2023-03-04T04:21:30;98794.94;;;-1.62;100.00
66547;BME280;53400;50.364;14.874;2023-03-04T04:23:56;98798.53;;;-1.79;100.00
66547;BME280;53400;50.364;14.874;2023-03-04T04:26:23;98806.28;;;-1.53;100.00
66547;BME280;53400;50.364;14.874;2023-03-04T04:28:49;98791.31;;;-1.69;100.00
66547;BME280;53400;50.364;14.874;2023-03-04T04:31:15;98792.44;;;-1.88;100.00
66547;BME280;53400;50.364;14.874;2023-03-04T04:33:40;98792.16;;;-1.76;100.00
66547;BME280;53400;50.364;14.874;2023-03-04T04:36:08;98788.47;;;-2.08;100.00
66547;BME280;53400;50.364;14.874;2023-03-04T04:38:37;98793.34;;;-2.13;100.00
66547;BME280;53400;50.364;14.874;2023-03-04T04:41:03;98784.66;;;-2.22;100.00
66547;BME280;53400;50.364;14.874;2023-03-04T04:43:31;98782.81;;;-2.29;100.00
66547;BME280;53400;50.364;14.874;2023-03-04T04:45:58;98779.19;;;-2.28;100.00
66547;BME280;53400;50.364;14.874;2023-03-04T04:48:24;98779.28;;;-2.12;100.00
66547;BME280;53400;50.364;14.874;2023-03-04T04:50:53;98774.63;;;-2.26;100.00
66547;BME280;53400;50.364;14.874;2023-03-04T04:53:20;98770.09;;;-2.08;100.00
66547;BME280;53400;50.364;14.874;2023-03-04T04:55:45;98768.06;;;-2.22;100.00
66547;BME280;53400;50.364;14.874;2023-03-04T04:58:11;98768.75;;;-2.20;100.00
66547;BME280;53400;50.364;14.874;2023-03-04T05:00:39;98773.53;;;-2.08;100.00
66547;BME280;53400;50.364;14.874;2023-03-04T05:03:05;98776.06;;;-2.32;100.00
66547;BME280;53400;50.364;14.874;2023-03-04T05:05:30;98775.25;;;-2.33;100.00
66547;BME280;53400;50.364;14.874;2023-03-04T05:07:56;98781.41;;;-2.16;100.00
66547;BME280;53400;50.364;14.874;2023-03-04T05:10:22;98783.88;;;-2.06;100.00
66547;BME280;53400;50.364;14.874;2023-03-04T05:12:48;98785.28;;;-1.61;100.00
66547;BME280;53400;50.364;14.874;2023-03-04T05:15:14;98782.13;;;-1.73;100.00
66547;BME280;53400;50.364;14.874;2023-03-04T05:17:41;98796.19;;;-1.98;100.00
66547;BME280;53400;50.364;14.874;2023-03-04T05:20:09;98780.13;;;-1.87;100.00
66547;BME280;53400;50.364;14.874;2023-03-04T05:22:35;98787.84;;;-1.94;100.00
66547;BME280;53400;50.364;14.874;2023-03-04T05:25:01;98786.88;;;-1.85;100.00
66547;BME280;53400;50.364;14.874;2023-03-04T05:27:27;98785.13;;;-2.26;100.00
66547;BME280;53400;50.364;14.874;2023-03-04T05:29:53;98787.69;;;-2.43;100.00
66547;BME280;53400;50.364;14.874;2023-03-04T05:32:20;98780.13;;;-2.46;100.00
66547;BME280;53400;50.364;14.874;2023-03-04T05:34:47;98777.66;;;-2.47;100.00
66547;BME280;53400;50.364;14.874;2023-03-04T05:37:14;98776.81;;;-2.56;100.00
66547;BME280;53400;50.364;14.874;2023-03-04T05:39:39;98779.22;;;-2.63;100.00
66547;BME280;53400;50.364;14.874;2023-03-04T05:42:06;98776.81;;;-2.56;100.00
66547;BME280;53400;50.364;14.874;2023-03-04T05:44:31;98772.28;;;-2.46;100.00
66547;BME280;53400;50.364;14.874;2023-03-04T05:46:57;98778.47;;;-2.47;100.00
66547;BME280;53400;50.364;14.874;2023-03-04T05:49:23;98774.28;;;-2.32;100.00
66547;BME280;53400;50.364;14.874;2023-03-04T05:51:50;98773.50;;;-2.24;100.00
66547;BME280;53400;50.364;14.874;2023-03-04T05:54:16;98778.56;;;-2.31;100.00
66547;BME280;53400;50.364;14.874;2023-03-04T05:56:42;98785.41;;;-2.38;100.00
66547;BME280;53400;50.364;14.874;2023-03-04T05:59:08;98797.38;;;-2.35;100.00
66547;BME280;53400;50.364;14.874;2023-03-04T06:01:34;98789.28;;;-2.16;100.00
66547;BME280;53400;50.364;14.874;2023-03-04T06:04:00;98787.28;;;-2.14;100.00
66547;BME280;53400;50.364;14.874;2023-03-04T06:06:26;98786.75;;;-2.34;100.00
66547;BME280;53400;50.364;14.874;2023-03-04T06:08:53;98800.03;;;-2.27;100.00
66547;BME280;53400;50.364;14.874;2023-03-04T06:11:20;98793.47;;;-2.31;100.00
66547;BME280;53400;50.364;14.874;2023-03-04T06:13:45;98789.19;;;-2.40;100.00
66547;BME280;53400;50.364;14.874;2023-03-04T06:16:12;98798.78;;;-2.57;100.00
66547;BME280;53400;50.364;14.874;2023-03-04T06:18:38;98801.25;;;-2.56;100.00
66547;BME280;53400;50.364;14.874;2023-03-04T06:21:04;98798.97;;;-2.50;100.00
66547;BME280;53400;50.364;14.874;2023-03-04T06:23:30;98801.78;;;-2.44;100.00
66547;BME280;53400;50.364;14.874;2023-03-04T06:25:59;98809.63;;;-2.52;100.00
66547;BME280;53400;50.364;14.874;2023-03-04T06:28:25;98807.00;;;-2.52;100.00
66547;BME280;53400;50.364;14.874;2023-03-04T06:30:51;98804.31;;;-2.60;100.00
66547;BME280;53400;50.364;14.874;2023-03-04T06:33:17;98814.31;;;-2.64;100.00
66547;BME280;53400;50.364;14.874;2023-03-04T06:35:43;98819.81;;;-2.75;100.00
66547;BME280;53400;50.364;14.874;2023-03-04T06:38:09;98804.50;;;-2.54;100.00
66547;BME280;53400;50.364;14.874;2023-03-04T06:40:35;98808.38;;;-2.32;100.00
66547;BME280;53400;50.364;14.874;2023-03-04T06:43:02;98805.09;;;-2.34;100.00
66547;BME280;53400;50.364;14.874;2023-03-04T06:45:28;98811.50;;;-2.62;100.00
66547;BME280;53400;50.364;14.874;2023-03-04T06:47:54;98818.53;;;-2.37;100.00
66547;BME280;53400;50.364;14.874;2023-03-04T06:50:20;98810.25;;;-2.50;100.00
66547;BME280;53400;50.364;14.874;2023-03-04T06:52:46;98810.25;;;-2.58;100.00
66547;BME280;53400;50.364;14.874;2023-03-04T06:55:14;98815.25;;;-2.73;100.00
66547;BME280;53400;50.364;14.874;2023-03-04T06:57:39;98813.88;;;-2.77;100.00
66547;BME280;53400;50.364;14.874;2023-03-04T07:00:09;98809.81;;;-2.80;100.00
66547;BME280;53400;50.364;14.874;2023-03-04T07:02:35;98818.88;;;-2.66;100.00
66547;BME280;53400;50.364;14.874;2023-03-04T07:05:01;98812.50;;;-2.63;100.00
66547;BME280;53400;50.364;14.874;2023-03-04T07:07:27;98815.25;;;-2.73;100.00
66547;BME280;53400;50.364;14.874;2023-03-04T07:09:53;98816.63;;;-2.61;100.00
66547;BME280;53400;50.364;14.874;2023-03-04T07:12:19;98809.13;;;-2.56;100.00
66547;BME280;53400;50.364;14.874;2023-03-04T07:14:45;98803.69;;;-2.54;100.00
66547;BME280;53400;50.364;14.874;2023-03-04T07:17:12;98811.63;;;-2.46;100.00
66547;BME280;53400;50.364;14.874;2023-03-04T07:19:38;98815.00;;;-2.62;100.00
66547;BME280;53400;50.364;14.874;2023-03-04T07:22:05;98818.13;;;-2.58;100.00
66547;BME280;53400;50.364;14.874;2023-03-04T07:24:31;98805.19;;;-2.51;100.00
66547;BME280;53400;50.364;14.874;2023-03-04T07:26:58;98808.44;;;-2.58;100.00
66547;BME280;53400;50.364;14.874;2023-03-04T07:29:24;98803.75;;;-2.38;100.00
66547;BME280;53400;50.364;14.874;2023-03-04T07:31:50;98811.00;;;-2.32;100.00
66547;BME280;53400;50.364;14.874;2023-03-04T07:34:17;98816.03;;;-2.46;100.00
66547;BME280;53400;50.364;14.874;2023-03-04T07:36:44;98806.78;;;-2.24;100.00
66547;BME280;53400;50.364;14.874;2023-03-04T07:39:11;98806.78;;;-2.24;100.00
66547;BME280;53400;50.364;14.874;2023-03-04T07:41:38;98808.56;;;-2.33;100.00
66547;BME280;53400;50.364;14.874;2023-03-04T07:44:06;98817.41;;;-2.26;100.00
66547;BME280;53400;50.364;14.874;2023-03-04T07:46:32;98823.38;;;-2.08;100.00
66547;BME280;53400;50.364;14.874;2023-03-04T07:48:58;98820.34;;;-1.95;100.00
66547;BME280;53400;50.364;14.874;2023-03-04T07:51:26;98818.31;;;-2.09;100.00
66547;BME280;53400;50.364;14.874;2023-03-04T07:53:55;98824.84;;;-2.21;100.00
66547;BME280;53400;50.364;14.874;2023-03-04T07:56:23;98823.72;;;-2.11;100.00
66547;BME280;53400;50.364;14.874;2023-03-04T07:58:50;98825.06;;;-1.98;100.00
66547;BME280;53400;50.364;14.874;2023-03-04T08:01:21;98817.50;;;-2.01;100.00
66547;BME280;53400;50.364;14.874;2023-03-04T08:03:47;98822.38;;;-2.15;100.00
66547;BME280;53400;50.364;14.874;2023-03-04T08:06:15;98824.72;;;-2.03;100.00
66547;BME280;53400;50.364;14.874;2023-03-04T08:08:44;98822.06;;;-2.12;100.00
66547;BME280;53400;50.364;14.874;2023-03-04T08:11:11;98820.94;;;-2.01;100.00
66547;BME280;53400;50.364;14.874;2023-03-04T08:13:37;98824.09;;;-1.89;100.00
66547;BME280;53400;50.364;14.874;2023-03-04T08:16:04;98826.00;;;-2.08;100.00
66547;BME280;53400;50.364;14.874;2023-03-04T08:18:30;98824.09;;;-1.97;100.00
66547;BME280;53400;50.364;14.874;2023-03-04T08:20:56;98822.63;;;-1.83;100.00
66547;BME280;53400;50.364;14.874;2023-03-04T08:23:23;98828.84;;;-1.93;100.00
66547;BME280;53400;50.364;14.874;2023-03-04T08:25:50;98829.66;;;-2.00;100.00
66547;BME280;53400;50.364;14.874;2023-03-04T08:28:16;98823.22;;;-2.14;100.00
66547;BME280;53400;50.364;14.874;2023-03-04T08:30:42;98825.41;;;-1.93;100.00
66547;BME280;53400;50.364;14.874;2023-03-04T08:33:09;98820.63;;;-1.98;100.00
66547;BME280;53400;50.364;14.874;2023-03-04T08:35:35;98821.47;;;-1.97;100.00
66547;BME280;53400;50.364;14.874;2023-03-04T08:38:02;98824.59;;;-1.94;100.00
66547;BME280;53400;50.364;14.874;2023-03-04T08:40:28;98823.25;;;-1.98;100.00
66547;BME280;53400;50.364;14.874;2023-03-04T08:42:57;98804.78;;;-1.72;100.00
66547;BME280;53400;50.364;14.874;2023-03-04T08:45:24;98813.97;;;-1.68;100.00
66547;BME280;53400;50.364;14.874;2023-03-04T08:47:51;98802.50;;;-1.58;100.00
66547;BME280;53400;50.364;14.874;2023-03-04T08:50:17;98808.91;;;-1.61;100.00
66547;BME280;53400;50.364;14.874;2023-03-04T08:52:43;98812.19;;;-1.51;100.00
66547;BME280;53400;50.364;14.874;2023-03-04T08:55:09;98805.44;;;-1.62;100.00
66547;BME280;53400;50.364;14.874;2023-03-04T08:57:35;98812.53;;;-1.46;100.00
66547;BME280;53400;50.364;14.874;2023-03-04T09:00:03;98805.81;;;-1.48;100.00
66547;BME280;53400;50.364;14.874;2023-03-04T09:02:29;98814.84;;;-1.43;99.81
66547;BME280;53400;50.364;14.874;2023-03-04T09:04:54;98807.78;;;-1.18;100.00
66547;BME280;53400;50.364;14.874;2023-03-04T09:07:20;98804.97;;;-1.41;100.00
66547;BME280;53400;50.364;14.874;2023-03-04T09:09:46;98801.84;;;-1.44;100.00
66547;BME280;53400;50.364;14.874;2023-03-04T09:12:13;98800.72;;;-1.42;100.00
66547;BME280;53400;50.364;14.874;2023-03-04T09:14:41;98809.75;;;-1.28;100.00
66547;BME280;53400;50.364;14.874;2023-03-04T09:17:08;98811.22;;;-1.17;100.00
66547;BME280;53400;50.364;14.874;2023-03-04T09:19:35;98810.25;;;-1.24;99.44
66547;BME280;53400;50.364;14.874;2023-03-04T09:22:01;98810.22;;;-1.16;100.00
66547;BME280;53400;50.364;14.874;2023-03-04T09:24:27;98803.81;;;-1.13;100.00
66547;BME280;53400;50.364;14.874;2023-03-04T09:26:54;98810.19;;;-0.92;99.98
66547;BME280;53400;50.364;14.874;2023-03-04T09:29:20;98801.63;;;-0.85;99.37
66547;BME280;53400;50.364;14.874;2023-03-04T09:31:46;98802.91;;;-0.65;99.44
66547;BME280;53400;50.364;14.874;2023-03-04T09:34:14;98798.84;;;-0.84;98.10
66547;BME280;53400;50.364;14.874;2023-03-04T09:36:40;98809.03;;;-0.73;98.86
66547;BME280;53400;50.364;14.874;2023-03-04T09:39:05;98800.59;;;-0.60;99.60
66547;BME280;53400;50.364;14.874;2023-03-04T09:41:36;98796.94;;;-0.42;98.59
66547;BME280;53400;50.364;14.874;2023-03-04T09:44:06;98799.84;;;-0.37;98.17
66547;BME280;53400;50.364;14.874;2023-03-04T09:46:37;98800.69;;;-0.37;97.98
66547;BME280;53400;50.364;14.874;2023-03-04T09:49:06;98790.56;;;-0.17;97.84
66547;BME280;53400;50.364;14.874;2023-03-04T09:51:48;98791.16;;;-0.07;97.41
66547;BME280;53400;50.364;14.874;2023-03-04T09:54:26;98794.34;;;0.12;96.59
66547;BME280;53400;50.364;14.874;2023-03-04T09:56:59;98792.09;;;0.32;95.54
66547;BME280;53400;50.364;14.874;2023-03-04T09:59:32;98785.03;;;0.32;95.20
66547;BME280;53400;50.364;14.874;2023-03-04T10:02:10;98790.16;;;0.49;93.52
66547;BME280;53400;50.364;14.874;2023-03-04T10:04:46;98779.69;;;0.40;94.71
66547;BME280;53400;50.364;14.874;2023-03-04T10:07:18;98777.34;;;0.45;95.03
66547;BME280;53400;50.364;14.874;2023-03-04T10:09:50;98776.28;;;0.55;93.85
66547;BME280;53400;50.364;14.874;2023-03-04T10:12:22;98774.06;;;0.66;93.80
66547;BME280;53400;50.364;14.874;2023-03-04T10:14:51;98762.84;;;0.87;93.53
66547;BME280;53400;50.364;14.874;2023-03-04T10:17:23;98770.13;;;0.85;92.52
66547;BME280;53400;50.364;14.874;2023-03-04T10:19:59;98759.41;;;1.02;93.04
66547;BME280;53400;50.364;14.874;2023-03-04T10:22:34;98764.50;;;1.18;92.58
66547;BME280;53400;50.364;14.874;2023-03-04T10:25:09;98753.78;;;1.34;91.01
66547;BME280;53400;50.364;14.874;2023-03-04T10:27:40;98747.50;;;1.35;90.06
66547;BME280;53400;50.364;14.874;2023-03-04T10:30:12;98755.88;;;1.39;90.09
66547;BME280;53400;50.364;14.874;2023-03-04T10:32:44;98743.31;;;1.56;89.97
66547;BME280;53400;50.364;14.874;2023-03-04T10:35:11;98747.13;;;1.68;89.91
66547;BME280;53400;50.364;14.874;2023-03-04T10:37:48;98743.22;;;1.86;89.11
66547;BME280;53400;50.364;14.874;2023-03-04T10:40:20;98739.53;;;1.80;89.80
66547;BME280;53400;50.364;14.874;2023-03-04T10:42:48;98742.69;;;1.90;89.13
66547;BME280;53400;50.364;14.874;2023-03-04T10:45:19;98732.31;;;1.89;89.20
66547;BME280;53400;50.364;14.874;2023-03-04T10:47:51;98740.06;;;2.12;88.66
66547;BME280;53400;50.364;14.874;2023-03-04T10:50:21;98737.38;;;2.26;87.87
66547;BME280;53400;50.364;14.874;2023-03-04T10:52:49;98730.25;;;2.48;87.70
66547;BME280;53400;50.364;14.874;2023-03-04T10:55:19;98727.69;;;2.34;86.73
66547;BME280;53400;50.364;14.874;2023-03-04T10:57:48;98724.16;;;2.26;87.94
66547;BME280;53400;50.364;14.874;2023-03-04T11:00:24;98721.41;;;2.35;88.36
66547;BME280;53400;50.364;14.874;2023-03-04T11:02:51;98728.13;;;2.37;87.95
66547;BME280;53400;50.364;14.874;2023-03-04T11:05:19;98715.97;;;2.21;87.42
66547;BME280;53400;50.364;14.874;2023-03-04T11:07:50;98712.38;;;2.50;87.69
66547;BME280;53400;50.364;14.874;2023-03-04T11:10:18;98702.19;;;2.47;87.07
66547;BME280;53400;50.364;14.874;2023-03-04T11:12:49;98704.53;;;2.36;88.16
66547;BME280;53400;50.364;14.874;2023-03-04T11:15:20;98693.25;;;2.48;87.38
66547;BME280;53400;50.364;14.874;2023-03-04T11:17:54;98701.13;;;2.42;86.85
66547;BME280;53400;50.364;14.874;2023-03-04T11:20:39;98699.78;;;2.52;86.30
66547;BME280;53400;50.364;14.874;2023-03-04T11:23:12;98694.88;;;2.49;86.17
66547;BME280;53400;50.364;14.874;2023-03-04T11:25:43;98697.44;;;2.64;85.76
66547;BME280;53400;50.364;14.874;2023-03-04T11:28:14;98694.78;;;2.64;86.53
66547;BME280;53400;50.364;14.874;2023-03-04T11:30:45;98700.00;;;2.79;84.27
66547;BME280;53400;50.364;14.874;2023-03-04T11:33:20;98694.75;;;2.86;86.40
66547;BME280;53400;50.364;14.874;2023-03-04T11:35:56;98698.22;;;2.86;84.99
66547;BME280;53400;50.364;14.874;2023-03-04T11:38:31;98694.53;;;2.81;85.55
66547;BME280;53400;50.364;14.874;2023-03-04T11:41:03;98700.25;;;2.56;85.94
66547;BME280;53400;50.364;14.874;2023-03-04T11:43:34;98703.06;;;2.83;85.04
66547;BME280;53400;50.364;14.874;2023-03-04T11:46:24;98695.69;;;2.71;85.96
66547;BME280;53400;50.364;14.874;2023-03-04T11:49:06;98696.22;;;2.95;85.24
66547;BME280;53400;50.364;14.874;2023-03-04T11:51:39;98687.72;;;2.99;85.32
66547;BME280;53400;50.364;14.874;2023-03-04T11:54:22;98689.63;;;3.12;84.38
66547;BME280;53400;50.364;14.874;2023-03-04T11:56:52;98687.00;;;3.19;83.78
66547;BME280;53400;50.364;14.874;2023-03-04T11:59:32;98681.59;;;3.34;83.24
66547;BME280;53400;50.364;14.874;2023-03-04T12:02:11;98682.66;;;3.46;82.12
66547;BME280;53400;50.364;14.874;2023-03-04T12:04:49;98682.13;;;3.22;83.62
66547;BME280;53400;50.364;14.874;2023-03-04T12:07:35;98669.75;;;3.30;82.93
66547;BME280;53400;50.364;14.874;2023-03-04T12:10:15;98658.97;;;3.31;82.60
66547;BME280;53400;50.364;14.874;2023-03-04T12:13:01;98660.03;;;3.43;81.36
66547;BME280;53400;50.364;14.874;2023-03-04T12:15:36;98658.16;;;3.37;81.08
66547;BME280;53400;50.364;14.874;2023-03-04T12:18:27;98656.81;;;3.55;81.02
66547;BME280;53400;50.364;14.874;2023-03-04T12:21:03;98651.75;;;3.53;80.95
66547;BME280;53400;50.364;14.874;2023-03-04T12:23:51;98647.03;;;3.49;80.37
66547;BME280;53400;50.364;14.874;2023-03-04T12:26:29;98644.22;;;3.57;81.12
66547;BME280;53400;50.364;14.874;2023-03-04T12:29:03;98639.91;;;3.56;81.10
66547;BME280;53400;50.364;14.874;2023-03-04T12:31:35;98639.34;;;3.67;81.48
66547;BME280;53400;50.364;14.874;2023-03-04T12:34:19;98638.53;;;3.66;79.77
66547;BME280;53400;50.364;14.874;2023-03-04T12:37:00;98640.78;;;3.70;80.74
66547;BME280;53400;50.364;14.874;2023-03-04T12:39:31;98641.75;;;3.55;80.70
66547;BME280;53400;50.364;14.874;2023-03-04T12:42:08;98643.41;;;3.56;81.39
66547;BME280;53400;50.364;14.874;2023-03-04T12:44:41;98647.50;;;3.65;80.91
66547;BME280;53400;50.364;14.874;2023-03-04T12:47:24;98641.97;;;3.67;79.82
66547;BME280;53400;50.364;14.874;2023-03-04T12:50:03;98635.06;;;3.66;81.06
66547;BME280;53400;50.364;14.874;2023-03-04T12:52:40;98643.59;;;3.61;80.90
66547;BME280;53400;50.364;14.874;2023-03-04T12:55:11;98634.44;;;3.71;80.47